sensor_id;sensor_type;location;lat;lon;timestamp;P1;durP1;ratioP1;P2;durP2;ratioP2
75774;SDS011;64505;51.458;7.556;2023-06-22T00:00:32;5.07;;;2.80;;
75774;SDS011;64505;51.458;7.556;2023-06-22T00:02:33;5.63;;;2.97;;
75774;SDS011;64505;51.458;7.556;2023-06-22T00:04:35;6.13;;;3.30;;
75774;SDS011;64505;51.458;7.556;2023-06-22T00:06:36;5.53;;;3.20;;
75774;SDS011;64505;51.458;7.556;2023-06-22T00:08:38;6.63;;;3.35;;
75774;SDS011;64505;51.458;7.556;2023-06-22T00:10:40;6.65;;;3.30;;
75774;SDS011;64505;51.458;7.556;2023-06-22T00:12:42;6.00;;;3.55;;
75774;SDS011;64505;51.458;7.556;2023-06-22T00:14:43;6.65;;;3.70;;
75774;SDS011;64505;51.458;7.556;2023-06-22T00:16:45;5.93;;;3.47;;
75774;SDS011;64505;51.458;7.556;2023-06-22T00:18:49;10.05;;;3.60;;
75774;SDS011;64505;51.458;7.556;2023-06-22T00:20:51;6.90;;;3.75;;
75774;SDS011;64505;51.458;7.556;2023-06-22T00:22:58;8.48;;;3.60;;
75774;SDS011;64505;51.458;7.556;2023-06-22T00:25:01;6.53;;;3.50;;
75774;SDS011;64505;51.458;7.556;2023-06-22T00:27:04;7.95;;;4.10;;
75774;SDS011;64505;51.458;7.556;2023-06-22T00:29:07;8.32;;;4.05;;
75774;SDS011;64505;51.458;7.556;2023-06-22T00:31:08;6.60;;;3.67;;
75774;SDS011;64505;51.458;7.556;2023-06-22T00:33:10;8.75;;;4.60;;
75774;SDS011;64505;51.458;7.556;2023-06-22T00:35:12;7.68;;;4.18;;
75774;SDS011;64505;51.458;7.556;2023-06-22T00:37:14;7.72;;;4.40;;
75774;SDS011;64505;51.458;7.556;2023-06-22T00:39:15;8.20;;;4.30;;
75774;SDS011;64505;51.458;7.556;2023-06-22T00:41:18;8.25;;;3.78;;
75774;SDS011;64505;51.458;7.556;2023-06-22T00:43:19;7.30;;;4.05;;
75774;SDS011;64505;51.458;7.556;2023-06-22T00:45:21;6.90;;;4.07;;
75774;SDS011;64505;51.458;7.556;2023-06-22T00:47:24;7.43;;;4.03;;
75774;SDS011;64505;51.458;7.556;2023-06-22T00:49:26;7.70;;;4.07;;
75774;SDS011;64505;51.458;7.556;2023-06-22T00:51:27;8.20;;;3.95;;
75774;SDS011;64505;51.458;7.556;2023-06-22T00:53:29;7.35;;;3.72;;
75774;SDS011;64505;51.458;7.556;2023-06-22T00:55:45;9.30;;;3.78;;
75774;SDS011;64505;51.458;7.556;2023-06-22T00:57:53;6.90;;;4.80;;
75774;SDS011;64505;51.458;7.556;2023-06-22T00:59:57;10.23;;;4.95;;
75774;SDS011;64505;51.458;7.556;2023-06-22T01:01:59;8.15;;;4.40;;
75774;SDS011;64505;51.458;7.556;2023-06-22T01:04:01;10.68;;;4.90;;
75774;SDS011;64505;51.458;7.556;2023-06-22T01:06:07;10.05;;;5.13;;
75774;SDS011;64505;51.458;7.556;2023-06-22T01:12:45;7.78;;;5.25;;
75774;SDS011;64505;51.458;7.556;2023-06-22T01:14:58;12.75;;;5.95;;
75774;SDS011;64505;51.458;7.556;2023-06-22T01:17:12;8.10;;;5.53;;
75774;SDS011;64505;51.458;7.556;2023-06-22T01:19:35;8.88;;;5.55;;
75774;SDS011;64505;51.458;7.556;2023-06-22T01:26:25;9.70;;;5.50;;
75774;SDS011;64505;51.458;7.556;2023-06-22T01:30:49;9.70;;;5.72;;
75774;SDS011;64505;51.458;7.556;2023-06-22T01:33:03;9.45;;;6.00;;
75774;SDS011;64505;51.458;7.556;2023-06-22T01:35:07;13.48;;;5.78;;
75774;SDS011;64505;51.458;7.556;2023-06-22T01:37:10;10.93;;;6.07;;
75774;SDS011;64505;51.458;7.556;2023-06-22T01:39:12;9.68;;;6.47;;
75774;SDS011;64505;51.458;7.556;2023-06-22T01:41:16;11.07;;;6.18;;
75774;SDS011;64505;51.458;7.556;2023-06-22T01:43:19;8.98;;;5.88;;
75774;SDS011;64505;51.458;7.556;2023-06-22T01:45:24;12.32;;;5.93;;
75774;SDS011;64505;51.458;7.556;2023-06-22T01:47:27;9.85;;;6.32;;
75774;SDS011;64505;51.458;7.556;2023-06-22T01:49:29;11.98;;;6.55;;
75774;SDS011;64505;51.458;7.556;2023-06-22T01:51:31;10.30;;;5.53;;
75774;SDS011;64505;51.458;7.556;2023-06-22T01:53:33;10.13;;;6.63;;
75774;SDS011;64505;51.458;7.556;2023-06-22T01:55:35;10.73;;;6.25;;
75774;SDS011;64505;51.458;7.556;2023-06-22T01:57:37;9.63;;;6.55;;
75774;SDS011;64505;51.458;7.556;2023-06-22T02:01:53;8.50;;;5.72;;
75774;SDS011;64505;51.458;7.556;2023-06-22T02:04:03;8.70;;;6.10;;
75774;SDS011;64505;51.458;7.556;2023-06-22T02:06:47;12.30;;;6.72;;
75774;SDS011;64505;51.458;7.556;2023-06-22T02:08:47;10.25;;;6.32;;
75774;SDS011;64505;51.458;7.556;2023-06-22T02:10:52;12.77;;;6.15;;
75774;SDS011;64505;51.458;7.556;2023-06-22T02:12:56;10.27;;;6.38;;
75774;SDS011;64505;51.458;7.556;2023-06-22T02:15:00;12.23;;;6.70;;
75774;SDS011;64505;51.458;7.556;2023-06-22T02:17:03;10.98;;;5.80;;
75774;SDS011;64505;51.458;7.556;2023-06-22T02:19:08;9.98;;;5.80;;
75774;SDS011;64505;51.458;7.556;2023-06-22T02:21:10;8.80;;;5.28;;
75774;SDS011;64505;51.458;7.556;2023-06-22T02:23:12;9.00;;;5.35;;
75774;SDS011;64505;51.458;7.556;2023-06-22T02:25:13;10.10;;;5.10;;
75774;SDS011;64505;51.458;7.556;2023-06-22T02:27:16;7.97;;;5.35;;
75774;SDS011;64505;51.458;7.556;2023-06-22T02:29:17;9.82;;;6.03;;
75774;SDS011;64505;51.458;7.556;2023-06-22T02:31:19;10.68;;;5.82;;
75774;SDS011;64505;51.458;7.556;2023-06-22T02:33:21;8.43;;;5.30;;
75774;SDS011;64505;51.458;7.556;2023-06-22T02:35:23;9.10;;;5.57;;
75774;SDS011;64505;51.458;7.556;2023-06-22T02:37:25;10.25;;;5.47;;
75774;SDS011;64505;51.458;7.556;2023-06-22T02:39:30;7.32;;;5.50;;
75774;SDS011;64505;51.458;7.556;2023-06-22T02:41:32;9.15;;;5.97;;
75774;SDS011;64505;51.458;7.556;2023-06-22T02:43:34;8.27;;;5.97;;
75774;SDS011;64505;51.458;7.556;2023-06-22T02:45:35;9.38;;;5.35;;
75774;SDS011;64505;51.458;7.556;2023-06-22T02:47:37;8.68;;;5.18;;
75774;SDS011;64505;51.458;7.556;2023-06-22T02:49:38;9.60;;;5.68;;
75774;SDS011;64505;51.458;7.556;2023-06-22T02:51:41;8.30;;;5.68;;
75774;SDS011;64505;51.458;7.556;2023-06-22T02:53:46;8.73;;;5.22;;
75774;SDS011;64505;51.458;7.556;2023-06-22T02:55:48;7.57;;;4.40;;
75774;SDS011;64505;51.458;7.556;2023-06-22T02:57:50;7.95;;;4.78;;
75774;SDS011;64505;51.458;7.556;2023-06-22T02:59:54;7.55;;;4.40;;
75774;SDS011;64505;51.458;7.556;2023-06-22T03:01:56;7.97;;;4.20;;
75774;SDS011;64505;51.458;7.556;2023-06-22T03:03:58;7.38;;;4.40;;
75774;SDS011;64505;51.458;7.556;2023-06-22T03:06:00;6.38;;;3.80;;
75774;SDS011;64505;51.458;7.556;2023-06-22T03:08:04;6.05;;;3.40;;
75774;SDS011;64505;51.458;7.556;2023-06-22T03:10:06;6.53;;;3.78;;
75774;SDS011;64505;51.458;7.556;2023-06-22T03:12:10;6.03;;;3.35;;
75774;SDS011;64505;51.458;7.556;2023-06-22T03:14:12;7.28;;;3.20;;
75774;SDS011;64505;51.458;7.556;2023-06-22T03:16:13;7.00;;;3.33;;
75774;SDS011;64505;51.458;7.556;2023-06-22T03:18:15;9.38;;;4.50;;
75774;SDS011;64505;51.458;7.556;2023-06-22T03:20:20;10.80;;;6.30;;
75774;SDS011;64505;51.458;7.556;2023-06-22T03:22:22;10.80;;;6.50;;
75774;SDS011;64505;51.458;7.556;2023-06-22T03:24:23;12.45;;;6.97;;
75774;SDS011;64505;51.458;7.556;2023-06-22T03:26:25;11.13;;;6.75;;
75774;SDS011;64505;51.458;7.556;2023-06-22T03:28:28;10.70;;;7.22;;
75774;SDS011;64505;51.458;7.556;2023-06-22T03:30:29;11.60;;;6.97;;
75774;SDS011;64505;51.458;7.556;2023-06-22T03:32:31;10.57;;;7.70;;
75774;SDS011;64505;51.458;7.556;2023-06-22T03:34:33;11.10;;;7.03;;
75774;SDS011;64505;51.458;7.556;2023-06-22T03:36:39;13.90;;;8.15;;
75774;SDS011;64505;51.458;7.556;2023-06-22T03:38:41;13.77;;;7.47;;
75774;SDS011;64505;51.458;7.556;2023-06-22T03:40:43;11.48;;;7.32;;
75774;SDS011;64505;51.458;7.556;2023-06-22T03:42:45;12.13;;;8.10;;
75774;SDS011;64505;51.458;7.556;2023-06-22T03:44:47;11.32;;;7.32;;
75774;SDS011;64505;51.458;7.556;2023-06-22T03:46:49;12.23;;;8.07;;
75774;SDS011;64505;51.458;7.556;2023-06-22T03:48:51;12.25;;;8.38;;
75774;SDS011;64505;51.458;7.556;2023-06-22T03:50:52;12.30;;;7.35;;
75774;SDS011;64505;51.458;7.556;2023-06-22T03:52:54;11.07;;;7.63;;
75774;SDS011;64505;51.458;7.556;2023-06-22T03:54:55;10.95;;;7.53;;
75774;SDS011;64505;51.458;7.556;2023-06-22T03:56:58;10.85;;;7.63;;
75774;SDS011;64505;51.458;7.556;2023-06-22T03:58:59;11.20;;;7.47;;
75774;SDS011;64505;51.458;7.556;2023-06-22T04:01:01;11.77;;;7.15;;
75774;SDS011;64505;51.458;7.556;2023-06-22T04:03:03;13.95;;;7.43;;
75774;SDS011;64505;51.458;7.556;2023-06-22T04:05:05;12.57;;;6.95;;
75774;SDS011;64505;51.458;7.556;2023-06-22T04:07:07;11.35;;;7.85;;
75774;SDS011;64505;51.458;7.556;2023-06-22T04:09:09;12.18;;;8.10;;
75774;SDS011;64505;51.458;7.556;2023-06-22T04:11:11;11.52;;;8.25;;
75774;SDS011;64505;51.458;7.556;2023-06-22T04:13:13;11.68;;;7.68;;
75774;SDS011;64505;51.458;7.556;2023-06-22T04:15:14;11.77;;;7.82;;
75774;SDS011;64505;51.458;7.556;2023-06-22T04:17:16;10.85;;;7.40;;
75774;SDS011;64505;51.458;7.556;2023-06-22T04:19:19;11.00;;;7.10;;
75774;SDS011;64505;51.458;7.556;2023-06-22T04:21:20;12.52;;;8.00;;
75774;SDS011;64505;51.458;7.556;2023-06-22T04:23:22;11.38;;;7.32;;
75774;SDS011;64505;51.458;7.556;2023-06-22T04:25:24;10.77;;;7.20;;
75774;SDS011;64505;51.458;7.556;2023-06-22T04:27:25;13.90;;;8.10;;
75774;SDS011;64505;51.458;7.556;2023-06-22T04:29:27;12.27;;;7.65;;
75774;SDS011;64505;51.458;7.556;2023-06-22T04:31:34;11.90;;;7.68;;
75774;SDS011;64505;51.458;7.556;2023-06-22T04:33:38;10.13;;;7.72;;
75774;SDS011;64505;51.458;7.556;2023-06-22T04:35:41;11.15;;;8.27;;
75774;SDS011;64505;51.458;7.556;2023-06-22T04:37:46;14.07;;;8.32;;
75774;SDS011;64505;51.458;7.556;2023-06-22T04:39:49;14.35;;;8.15;;
75774;SDS011;64505;51.458;7.556;2023-06-22T04:41:51;13.02;;;8.18;;
75774;SDS011;64505;51.458;7.556;2023-06-22T04:43:53;13.95;;;8.20;;
75774;SDS011;64505;51.458;7.556;2023-06-22T04:45:55;13.50;;;8.05;;
75774;SDS011;64505;51.458;7.556;2023-06-22T04:47:57;12.07;;;8.10;;
75774;SDS011;64505;51.458;7.556;2023-06-22T04:49:59;11.80;;;8.13;;
75774;SDS011;64505;51.458;7.556;2023-06-22T04:52:05;13.05;;;7.75;;
75774;SDS011;64505;51.458;7.556;2023-06-22T04:54:11;12.85;;;7.63;;
75774;SDS011;64505;51.458;7.556;2023-06-22T04:56:12;11.48;;;7.70;;
75774;SDS011;64505;51.458;7.556;2023-06-22T04:58:14;10.50;;;7.32;;
75774;SDS011;64505;51.458;7.556;2023-06-22T05:00:16;12.80;;;7.72;;
75774;SDS011;64505;51.458;7.556;2023-06-22T05:02:19;13.25;;;7.72;;
75774;SDS011;64505;51.458;7.556;2023-06-22T05:04:21;11.15;;;7.28;;
75774;SDS011;64505;51.458;7.556;2023-06-22T05:06:27;13.68;;;8.48;;
75774;SDS011;64505;51.458;7.556;2023-06-22T05:08:29;13.48;;;8.15;;
75774;SDS011;64505;51.458;7.556;2023-06-22T05:10:30;11.63;;;7.13;;
75774;SDS011;64505;51.458;7.556;2023-06-22T05:12:32;11.32;;;7.53;;
75774;SDS011;64505;51.458;7.556;2023-06-22T05:14:34;13.55;;;8.88;;
75774;SDS011;64505;51.458;7.556;2023-06-22T05:16:38;16.92;;;9.15;;
75774;SDS011;64505;51.458;7.556;2023-06-22T05:20:44;16.33;;;9.07;;
75774;SDS011;64505;51.458;7.556;2023-06-22T05:22:46;14.38;;;9.43;;
75774;SDS011;64505;51.458;7.556;2023-06-22T05:24:48;14.35;;;8.50;;
75774;SDS011;64505;51.458;7.556;2023-06-22T05:26:49;14.82;;;8.55;;
75774;SDS011;64505;51.458;7.556;2023-06-22T05:28:51;14.82;;;8.90;;
75774;SDS011;64505;51.458;7.556;2023-06-22T05:30:53;14.95;;;9.10;;
75774;SDS011;64505;51.458;7.556;2023-06-22T05:32:54;13.38;;;9.32;;
75774;SDS011;64505;51.458;7.556;2023-06-22T05:34:56;12.50;;;9.05;;
75774;SDS011;64505;51.458;7.556;2023-06-22T05:36:58;15.73;;;9.80;;
75774;SDS011;64505;51.458;7.556;2023-06-22T05:39:10;14.82;;;9.80;;
75774;SDS011;64505;51.458;7.556;2023-06-22T05:41:13;14.27;;;8.93;;
75774;SDS011;64505;51.458;7.556;2023-06-22T05:43:15;14.68;;;9.98;;
75774;SDS011;64505;51.458;7.556;2023-06-22T05:45:17;15.52;;;9.70;;
75774;SDS011;64505;51.458;7.556;2023-06-22T05:47:21;18.02;;;9.63;;
75774;SDS011;64505;51.458;7.556;2023-06-22T05:49:24;16.25;;;10.13;;
75774;SDS011;64505;51.458;7.556;2023-06-22T05:51:30;16.50;;;10.27;;
75774;SDS011;64505;51.458;7.556;2023-06-22T05:53:32;16.33;;;10.23;;
75774;SDS011;64505;51.458;7.556;2023-06-22T05:55:34;15.27;;;10.48;;
75774;SDS011;64505;51.458;7.556;2023-06-22T05:57:36;13.68;;;9.50;;
75774;SDS011;64505;51.458;7.556;2023-06-22T05:59:37;19.50;;;11.10;;
75774;SDS011;64505;51.458;7.556;2023-06-22T06:01:39;15.32;;;10.23;;
75774;SDS011;64505;51.458;7.556;2023-06-22T06:03:41;16.58;;;10.68;;
75774;SDS011;64505;51.458;7.556;2023-06-22T06:05:43;16.67;;;10.85;;
75774;SDS011;64505;51.458;7.556;2023-06-22T06:07:46;16.88;;;11.05;;
75774;SDS011;64505;51.458;7.556;2023-06-22T06:09:48;15.75;;;11.13;;
75774;SDS011;64505;51.458;7.556;2023-06-22T06:11:50;15.40;;;10.77;;
75774;SDS011;64505;51.458;7.556;2023-06-22T06:13:51;15.88;;;10.88;;
75774;SDS011;64505;51.458;7.556;2023-06-22T06:15:53;16.20;;;10.80;;
75774;SDS011;64505;51.458;7.556;2023-06-22T06:17:58;17.95;;;11.77;;
75774;SDS011;64505;51.458;7.556;2023-06-22T06:20:01;17.02;;;11.45;;
75774;SDS011;64505;51.458;7.556;2023-06-22T06:22:03;17.27;;;11.55;;
75774;SDS011;64505;51.458;7.556;2023-06-22T06:24:05;15.35;;;11.35;;
75774;SDS011;64505;51.458;7.556;2023-06-22T06:26:07;16.08;;;10.38;;
75774;SDS011;64505;51.458;7.556;2023-06-22T06:28:08;16.83;;;11.13;;
75774;SDS011;64505;51.458;7.556;2023-06-22T06:30:10;15.65;;;10.88;;
75774;SDS011;64505;51.458;7.556;2023-06-22T06:32:13;16.60;;;11.50;;
75774;SDS011;64505;51.458;7.556;2023-06-22T06:34:15;15.57;;;11.18;;
75774;SDS011;64505;51.458;7.556;2023-06-22T06:36:16;15.75;;;11.18;;
75774;SDS011;64505;51.458;7.556;2023-06-22T06:38:18;14.95;;;11.13;;
75774;SDS011;64505;51.458;7.556;2023-06-22T06:40:20;16.13;;;11.82;;
75774;SDS011;64505;51.458;7.556;2023-06-22T06:42:22;15.82;;;11.45;;
75774;SDS011;64505;51.458;7.556;2023-06-22T06:44:25;17.15;;;12.00;;
75774;SDS011;64505;51.458;7.556;2023-06-22T06:46:27;16.83;;;11.95;;
75774;SDS011;64505;51.458;7.556;2023-06-22T06:48:29;17.88;;;12.25;;
75774;SDS011;64505;51.458;7.556;2023-06-22T06:50:30;17.40;;;11.52;;
75774;SDS011;64505;51.458;7.556;2023-06-22T06:52:33;17.20;;;11.93;;
75774;SDS011;64505;51.458;7.556;2023-06-22T06:54:36;18.23;;;12.27;;
75774;SDS011;64505;51.458;7.556;2023-06-22T06:56:38;17.13;;;11.30;;
75774;SDS011;64505;51.458;7.556;2023-06-22T06:58:42;16.17;;;12.02;;
75774;SDS011;64505;51.458;7.556;2023-06-22T07:00:46;14.45;;;10.73;;
75774;SDS011;64505;51.458;7.556;2023-06-22T07:02:48;16.85;;;11.90;;
75774;SDS011;64505;51.458;7.556;2023-06-22T07:04:50;17.02;;;11.52;;
75774;SDS011;64505;51.458;7.556;2023-06-22T07:06:52;16.95;;;12.13;;
75774;SDS011;64505;51.458;7.556;2023-06-22T07:08:53;16.85;;;12.43;;
75774;SDS011;64505;51.458;7.556;2023-06-22T07:10:56;17.88;;;11.93;;
75774;SDS011;64505;51.458;7.556;2023-06-22T07:12:57;16.23;;;10.55;;
75774;SDS011;64505;51.458;7.556;2023-06-22T07:15:03;15.85;;;11.38;;
75774;SDS011;64505;51.458;7.556;2023-06-22T07:17:06;18.17;;;12.10;;
75774;SDS011;64505;51.458;7.556;2023-06-22T07:19:07;16.42;;;11.73;;
75774;SDS011;64505;51.458;7.556;2023-06-22T07:21:10;13.80;;;11.32;;
75774;SDS011;64505;51.458;7.556;2023-06-22T07:23:12;15.57;;;11.50;;
75774;SDS011;64505;51.458;7.556;2023-06-22T07:25:14;15.27;;;11.30;;
75774;SDS011;64505;51.458;7.556;2023-06-22T07:27:16;16.70;;;11.05;;
75774;SDS011;64505;51.458;7.556;2023-06-22T07:29:22;13.73;;;10.38;;
75774;SDS011;64505;51.458;7.556;2023-06-22T07:31:24;19.05;;;11.80;;
75774;SDS011;64505;51.458;7.556;2023-06-22T07:33:26;15.50;;;10.43;;
75774;SDS011;64505;51.458;7.556;2023-06-22T07:35:33;15.10;;;10.95;;
75774;SDS011;64505;51.458;7.556;2023-06-22T07:37:34;15.48;;;11.10;;
75774;SDS011;64505;51.458;7.556;2023-06-22T07:39:36;16.27;;;11.23;;
75774;SDS011;64505;51.458;7.556;2023-06-22T07:41:39;14.52;;;11.13;;
75774;SDS011;64505;51.458;7.556;2023-06-22T07:43:43;17.50;;;11.43;;
75774;SDS011;64505;51.458;7.556;2023-06-22T07:45:48;15.35;;;10.50;;
75774;SDS011;64505;51.458;7.556;2023-06-22T07:47:53;14.18;;;10.85;;
75774;SDS011;64505;51.458;7.556;2023-06-22T07:49:58;14.50;;;10.80;;
75774;SDS011;64505;51.458;7.556;2023-06-22T07:52:02;14.30;;;10.98;;
75774;SDS011;64505;51.458;7.556;2023-06-22T07:54:07;15.32;;;11.15;;
75774;SDS011;64505;51.458;7.556;2023-06-22T07:56:10;14.77;;;10.70;;
75774;SDS011;64505;51.458;7.556;2023-06-22T07:58:12;16.65;;;10.40;;
75774;SDS011;64505;51.458;7.556;2023-06-22T08:00:14;14.40;;;10.35;;
75774;SDS011;64505;51.458;7.556;2023-06-22T08:02:16;15.57;;;11.65;;
75774;SDS011;64505;51.458;7.556;2023-06-22T08:04:18;17.00;;;11.45;;
75774;SDS011;64505;51.458;7.556;2023-06-22T08:06:20;17.42;;;13.00;;
75774;SDS011;64505;51.458;7.556;2023-06-22T08:08:23;16.23;;;11.38;;
75774;SDS011;64505;51.458;7.556;2023-06-22T08:10:25;15.30;;;10.88;;
75774;SDS011;64505;51.458;7.556;2023-06-22T08:12:27;15.60;;;11.93;;
75774;SDS011;64505;51.458;7.556;2023-06-22T08:14:29;17.20;;;11.90;;
75774;SDS011;64505;51.458;7.556;2023-06-22T08:16:31;15.65;;;11.85;;
75774;SDS011;64505;51.458;7.556;2023-06-22T08:18:32;16.55;;;11.98;;
75774;SDS011;64505;51.458;7.556;2023-06-22T08:20:34;15.68;;;11.45;;
75774;SDS011;64505;51.458;7.556;2023-06-22T08:22:36;14.90;;;11.30;;
75774;SDS011;64505;51.458;7.556;2023-06-22T08:24:38;15.52;;;11.05;;
75774;SDS011;64505;51.458;7.556;2023-06-22T08:26:39;14.55;;;10.32;;
75774;SDS011;64505;51.458;7.556;2023-06-22T08:28:41;13.70;;;10.18;;
75774;SDS011;64505;51.458;7.556;2023-06-22T08:30:42;12.93;;;9.88;;
75774;SDS011;64505;51.458;7.556;2023-06-22T08:32:44;13.02;;;9.30;;
75774;SDS011;64505;51.458;7.556;2023-06-22T08:34:46;14.30;;;9.85;;
75774;SDS011;64505;51.458;7.556;2023-06-22T08:36:48;14.88;;;11.25;;
75774;SDS011;64505;51.458;7.556;2023-06-22T08:38:53;14.30;;;10.50;;
75774;SDS011;64505;51.458;7.556;2023-06-22T08:40:55;15.68;;;11.38;;
75774;SDS011;64505;51.458;7.556;2023-06-22T08:42:56;15.70;;;10.18;;
75774;SDS011;64505;51.458;7.556;2023-06-22T08:44:58;14.88;;;11.15;;
75774;SDS011;64505;51.458;7.556;2023-06-22T08:47:00;17.42;;;12.00;;
75774;SDS011;64505;51.458;7.556;2023-06-22T08:49:07;16.35;;;10.35;;
75774;SDS011;64505;51.458;7.556;2023-06-22T08:51:11;14.75;;;10.75;;
75774;SDS011;64505;51.458;7.556;2023-06-22T08:53:12;14.80;;;11.55;;
75774;SDS011;64505;51.458;7.556;2023-06-22T08:55:14;15.90;;;12.13;;
75774;SDS011;64505;51.458;7.556;2023-06-22T08:57:15;15.55;;;12.25;;
75774;SDS011;64505;51.458;7.556;2023-06-22T08:59:17;16.67;;;11.35;;
75774;SDS011;64505;51.458;7.556;2023-06-22T09:01:19;15.88;;;12.00;;
75774;SDS011;64505;51.458;7.556;2023-06-22T09:03:20;16.23;;;11.82;;
75774;SDS011;64505;51.458;7.556;2023-06-22T09:05:22;16.92;;;11.60;;
75774;SDS011;64505;51.458;7.556;2023-06-22T09:07:24;15.35;;;11.63;;
75774;SDS011;64505;51.458;7.556;2023-06-22T09:09:27;17.15;;;12.00;;
75774;SDS011;64505;51.458;7.556;2023-06-22T09:11:28;16.40;;;11.73;;
75774;SDS011;64505;51.458;7.556;2023-06-22T09:13:30;16.48;;;12.07;;
75774;SDS011;64505;51.458;7.556;2023-06-22T09:15:33;17.08;;;10.95;;
75774;SDS011;64505;51.458;7.556;2023-06-22T09:17:35;15.13;;;11.57;;
75774;SDS011;64505;51.458;7.556;2023-06-22T09:19:38;15.20;;;12.27;;
75774;SDS011;64505;51.458;7.556;2023-06-22T09:21:39;16.80;;;12.05;;
75774;SDS011;64505;51.458;7.556;2023-06-22T09:23:41;15.82;;;11.95;;
75774;SDS011;64505;51.458;7.556;2023-06-22T09:25:43;17.90;;;12.65;;
75774;SDS011;64505;51.458;7.556;2023-06-22T09:27:44;15.55;;;12.52;;
75774;SDS011;64505;51.458;7.556;2023-06-22T09:29:46;15.25;;;11.52;;
75774;SDS011;64505;51.458;7.556;2023-06-22T09:31:47;17.55;;;11.10;;
75774;SDS011;64505;51.458;7.556;2023-06-22T09:33:49;15.45;;;12.18;;
75774;SDS011;64505;51.458;7.556;2023-06-22T09:35:54;17.95;;;11.68;;
75774;SDS011;64505;51.458;7.556;2023-06-22T09:37:55;14.90;;;10.77;;
75774;SDS011;64505;51.458;7.556;2023-06-22T09:39:57;14.30;;;10.90;;
75774;SDS011;64505;51.458;7.556;2023-06-22T09:41:59;14.27;;;11.15;;
75774;SDS011;64505;51.458;7.556;2023-06-22T09:44:01;14.10;;;10.60;;
75774;SDS011;64505;51.458;7.556;2023-06-22T09:46:03;15.00;;;10.90;;
75774;SDS011;64505;51.458;7.556;2023-06-22T09:48:04;16.00;;;11.35;;
75774;SDS011;64505;51.458;7.556;2023-06-22T09:50:06;13.57;;;9.70;;
75774;SDS011;64505;51.458;7.556;2023-06-22T09:52:09;17.48;;;11.20;;
75774;SDS011;64505;51.458;7.556;2023-06-22T09:54:12;12.07;;;9.75;;
75774;SDS011;64505;51.458;7.556;2023-06-22T09:56:14;13.93;;;10.18;;
75774;SDS011;64505;51.458;7.556;2023-06-22T09:58:16;13.93;;;9.45;;
75774;SDS011;64505;51.458;7.556;2023-06-22T10:00:18;14.77;;;10.40;;
75774;SDS011;64505;51.458;7.556;2023-06-22T10:02:20;13.40;;;10.65;;
75774;SDS011;64505;51.458;7.556;2023-06-22T10:04:23;14.15;;;9.93;;
75774;SDS011;64505;51.458;7.556;2023-06-22T10:06:26;15.38;;;11.10;;
75774;SDS011;64505;51.458;7.556;2023-06-22T10:08:28;13.30;;;10.18;;
75774;SDS011;64505;51.458;7.556;2023-06-22T10:10:29;15.05;;;8.95;;
75774;SDS011;64505;51.458;7.556;2023-06-22T10:12:31;11.98;;;8.57;;
75774;SDS011;64505;51.458;7.556;2023-06-22T10:14:32;11.50;;;8.82;;
75774;SDS011;64505;51.458;7.556;2023-06-22T10:16:35;12.52;;;7.72;;
75774;SDS011;64505;51.458;7.556;2023-06-22T10:18:37;12.77;;;7.93;;
75774;SDS011;64505;51.458;7.556;2023-06-22T10:20:39;10.98;;;7.82;;
75774;SDS011;64505;51.458;7.556;2023-06-22T10:22:41;12.20;;;8.07;;
75774;SDS011;64505;51.458;7.556;2023-06-22T10:24:43;13.18;;;9.15;;
75774;SDS011;64505;51.458;7.556;2023-06-22T10:26:46;13.30;;;9.02;;
75774;SDS011;64505;51.458;7.556;2023-06-22T10:28:47;12.70;;;8.40;;
75774;SDS011;64505;51.458;7.556;2023-06-22T10:30:50;13.48;;;9.02;;
75774;SDS011;64505;51.458;7.556;2023-06-22T10:32:52;12.35;;;8.18;;
75774;SDS011;64505;51.458;7.556;2023-06-22T10:34:54;11.27;;;8.55;;
75774;SDS011;64505;51.458;7.556;2023-06-22T10:36:59;13.48;;;9.85;;
75774;SDS011;64505;51.458;7.556;2023-06-22T10:39:01;13.70;;;9.35;;
75774;SDS011;64505;51.458;7.556;2023-06-22T10:41:04;13.73;;;9.40;;
75774;SDS011;64505;51.458;7.556;2023-06-22T10:43:05;11.73;;;9.20;;
75774;SDS011;64505;51.458;7.556;2023-06-22T10:45:07;12.02;;;8.88;;
75774;SDS011;64505;51.458;7.556;2023-06-22T10:47:09;11.88;;;8.15;;
75774;SDS011;64505;51.458;7.556;2023-06-22T10:49:12;9.65;;;7.65;;
75774;SDS011;64505;51.458;7.556;2023-06-22T10:51:14;11.45;;;8.15;;
75774;SDS011;64505;51.458;7.556;2023-06-22T10:53:16;12.27;;;8.63;;
75774;SDS011;64505;51.458;7.556;2023-06-22T10:55:17;12.77;;;8.20;;
75774;SDS011;64505;51.458;7.556;2023-06-22T10:57:19;11.55;;;8.32;;
75774;SDS011;64505;51.458;7.556;2023-06-22T10:59:21;13.07;;;8.32;;
75774;SDS011;64505;51.458;7.556;2023-06-22T11:01:24;10.55;;;7.30;;
75774;SDS011;64505;51.458;7.556;2023-06-22T11:03:37;11.60;;;7.30;;
75774;SDS011;64505;51.458;7.556;2023-06-22T11:05:38;10.07;;;6.80;;
75774;SDS011;64505;51.458;7.556;2023-06-22T11:07:43;10.80;;;6.95;;
75774;SDS011;64505;51.458;7.556;2023-06-22T11:09:47;9.43;;;6.70;;
75774;SDS011;64505;51.458;7.556;2023-06-22T11:11:49;11.38;;;7.35;;
75774;SDS011;64505;51.458;7.556;2023-06-22T11:13:56;9.73;;;6.85;;
75774;SDS011;64505;51.458;7.556;2023-06-22T11:15:57;10.27;;;6.68;;
75774;SDS011;64505;51.458;7.556;2023-06-22T11:17:59;11.80;;;7.15;;
75774;SDS011;64505;51.458;7.556;2023-06-22T11:20:01;29.13;;;9.93;;
75774;SDS011;64505;51.458;7.556;2023-06-22T11:22:05;20.85;;;8.65;;
75774;SDS011;64505;51.458;7.556;2023-06-22T11:24:07;14.88;;;8.07;;
75774;SDS011;64505;51.458;7.556;2023-06-22T11:26:09;12.48;;;8.15;;
75774;SDS011;64505;51.458;7.556;2023-06-22T11:28:10;13.05;;;8.35;;
75774;SDS011;64505;51.458;7.556;2023-06-22T11:30:12;13.00;;;7.90;;
75774;SDS011;64505;51.458;7.556;2023-06-22T11:32:14;13.30;;;8.00;;
75774;SDS011;64505;51.458;7.556;2023-06-22T11:34:15;11.10;;;8.05;;
75774;SDS011;64505;51.458;7.556;2023-06-22T11:36:17;12.38;;;8.38;;
75774;SDS011;64505;51.458;7.556;2023-06-22T11:38:20;12.98;;;8.57;;
75774;SDS011;64505;51.458;7.556;2023-06-22T11:40:22;15.10;;;9.25;;
75774;SDS011;64505;51.458;7.556;2023-06-22T11:42:24;14.77;;;10.23;;
75774;SDS011;64505;51.458;7.556;2023-06-22T11:44:26;12.48;;;9.20;;
75774;SDS011;64505;51.458;7.556;2023-06-22T11:46:28;16.42;;;9.90;;
75774;SDS011;64505;51.458;7.556;2023-06-22T11:48:30;17.73;;;10.45;;
75774;SDS011;64505;51.458;7.556;2023-06-22T11:50:31;12.73;;;9.52;;
75774;SDS011;64505;51.458;7.556;2023-06-22T11:52:37;14.50;;;10.57;;
75774;SDS011;64505;51.458;7.556;2023-06-22T11:54:38;13.65;;;10.52;;
75774;SDS011;64505;51.458;7.556;2023-06-22T11:56:40;15.05;;;10.95;;
75774;SDS011;64505;51.458;7.556;2023-06-22T11:58:41;17.15;;;10.80;;
75774;SDS011;64505;51.458;7.556;2023-06-22T12:00:43;13.50;;;10.35;;
75774;SDS011;64505;51.458;7.556;2023-06-22T12:02:52;16.45;;;10.98;;
75774;SDS011;64505;51.458;7.556;2023-06-22T12:04:54;16.38;;;10.77;;
75774;SDS011;64505;51.458;7.556;2023-06-22T12:06:57;14.85;;;11.35;;
75774;SDS011;64505;51.458;7.556;2023-06-22T12:08:59;15.95;;;10.95;;
75774;SDS011;64505;51.458;7.556;2023-06-22T12:11:01;17.30;;;11.25;;
75774;SDS011;64505;51.458;7.556;2023-06-22T12:13:02;17.80;;;11.48;;
75774;SDS011;64505;51.458;7.556;2023-06-22T12:15:04;16.75;;;11.18;;
75774;SDS011;64505;51.458;7.556;2023-06-22T12:17:07;17.10;;;11.93;;
75774;SDS011;64505;51.458;7.556;2023-06-22T12:19:08;15.68;;;11.10;;
75774;SDS011;64505;51.458;7.556;2023-06-22T12:21:10;17.90;;;12.13;;